createdAt,value
2019-01-13T00:01:58.866Z,100153.73
2019-01-13T00:04:27.581Z,100140.72
2019-01-13T00:06:56.180Z,100152.97
2019-01-13T00:09:25.052Z,100150.17
2019-01-13T00:11:53.868Z,100144.03
2019-01-13T00:14:22.845Z,100157.72
2019-01-13T00:16:51.413Z,100151.20
2019-01-13T00:19:20.197Z,100151.20
2019-01-13T00:21:49.080Z,100148.72
2019-01-13T00:24:19.966Z,100156.70
2019-01-13T00:26:48.794Z,100156.97
2019-01-13T00:29:17.522Z,100162.61
2019-01-13T00:31:46.221Z,100153.45
2019-01-13T00:34:14.987Z,100158.59
2019-01-13T00:36:43.637Z,100163.28
2019-01-13T00:39:12.418Z,100160.30
2019-01-13T00:41:41.056Z,100152.07
2019-01-13T00:44:09.753Z,100159.59
2019-01-13T00:46:38.423Z,100150.91
2019-01-13T00:49:12.540Z,100147.04
2019-01-13T00:51:41.566Z,100162.41
2019-01-13T00:54:10.227Z,100158.46
2019-01-13T00:56:49.474Z,100159.29
2019-01-13T00:59:18.366Z,100155.59
2019-01-13T01:01:46.981Z,100153.56
2019-01-13T01:04:15.560Z,100156.29
2019-01-13T01:06:44.143Z,100154.73
2019-01-13T01:09:12.826Z,100159.23
2019-01-13T01:11:41.499Z,100151.94
2019-01-13T01:14:10.523Z,100163.21
2019-01-13T01:16:39.125Z,100158.26
2019-01-13T01:19:14.850Z,100150.79
2019-01-13T01:21:43.913Z,100169.06
2019-01-13T01:24:14.446Z,100170.95
2019-01-13T01:26:43.089Z,100164.41
2019-01-13T01:29:11.776Z,100175.69
2019-01-13T01:31:40.390Z,100170.19
2019-01-13T01:34:08.965Z,100176.85
2019-01-13T01:36:37.580Z,100171.23
2019-01-13T01:39:08.101Z,100178.95
2019-01-13T01:41:36.886Z,100174.56
2019-01-13T01:44:05.519Z,100173.73
2019-01-13T01:46:34.259Z,100177.24
2019-01-13T01:49:02.902Z,100180.62
2019-01-13T01:51:31.754Z,100174.01
2019-01-13T01:54:00.458Z,100166.66
2019-01-13T01:56:29.110Z,100162.16
2019-01-13T01:58:57.728Z,100155.31
2019-01-13T02:01:26.552Z,100153.29
2019-01-13T02:03:55.181Z,100150.92
2019-01-13T02:06:23.967Z,100147.41
2019-01-13T02:08:52.595Z,100149.87
2019-01-13T02:11:21.335Z,100143.55
2019-01-13T02:13:49.954Z,100143.55
2019-01-13T02:16:18.611Z,100155.86
2019-01-13T02:18:47.258Z,100151.09
2019-01-13T02:21:15.988Z,100139.66
2019-01-13T02:23:44.692Z,100137.28
2019-01-13T02:26:13.465Z,100145.27
2019-01-13T02:28:42.066Z,100144.73
2019-01-13T02:31:10.850Z,100150.70
2019-01-13T02:33:39.528Z,100148.23
2019-01-13T02:36:11.001Z,100133.56
2019-01-13T02:38:39.714Z,100146.70
2019-01-13T02:41:08.370Z,100142.44
2019-01-13T02:43:37.116Z,100134.27
2019-01-13T02:46:05.705Z,100143.39
2019-01-13T02:48:34.237Z,100131.92
2019-01-13T02:51:02.900Z,100136.76
2019-01-13T02:53:31.568Z,100141.03
2019-01-13T02:56:00.136Z,100138.31
2019-01-13T02:58:28.867Z,100124.49
2019-01-13T03:00:57.558Z,100124.49
2019-01-13T03:03:26.358Z,100119.72
2019-01-13T03:05:55.015Z,100130.33
2019-01-13T03:08:23.640Z,100124.04
2019-01-13T03:10:52.371Z,100115.75
2019-01-13T03:13:21.146Z,100115.75
2019-01-13T03:15:49.811Z,100106.42
2019-01-13T03:18:18.384Z,100099.13
2019-01-13T03:20:47.048Z,100099.05
2019-01-13T03:23:15.697Z,100110.35
2019-01-13T03:25:44.344Z,100105.95
2019-01-13T03:28:12.980Z,100094.95
2019-01-13T03:30:41.667Z,100096.58
2019-01-13T03:33:10.300Z,100076.94
2019-01-13T03:35:38.940Z,100087.92
2019-01-13T03:38:07.543Z,100061.07
2019-01-13T03:40:36.309Z,100075.38
2019-01-13T03:43:05.027Z,100074.68
2019-01-13T03:45:33.707Z,100076.30
2019-01-13T03:48:02.318Z,100070.89
2019-01-13T03:50:31.064Z,100070.83
2019-01-13T03:52:59.780Z,100071.13
2019-01-13T03:55:28.481Z,100074.61
2019-01-13T03:57:57.069Z,100067.41
2019-01-13T04:00:26.217Z,100061.41
2019-01-13T04:02:54.837Z,100060.37
2019-01-13T04:05:26.621Z,100061.67
2019-01-13T04:07:55.238Z,100060.78
2019-01-13T04:10:23.857Z,100067.28
2019-01-13T04:12:52.471Z,100063.95
2019-01-13T04:15:59.265Z,100068.11
2019-01-13T04:18:27.926Z,100059.60
2019-01-13T04:20:56.547Z,100059.60
2019-01-13T04:23:25.200Z,100063.95
2019-01-13T04:25:55.222Z,100062.69
2019-01-13T04:28:23.977Z,100059.60
2019-01-13T04:30:52.942Z,100055.95
2019-01-13T04:33:21.565Z,100053.36
2019-01-13T04:35:50.203Z,100048.47
2019-01-13T04:38:18.843Z,100036.66
2019-01-13T04:40:47.559Z,100036.66
2019-01-13T04:43:16.231Z,100039.45
2019-01-13T04:45:46.503Z,100039.92
2019-01-13T04:48:15.249Z,100036.79
2019-01-13T04:50:43.825Z,100021.58
2019-01-13T04:53:12.484Z,100026.83
2019-01-13T04:55:41.084Z,100021.69
2019-01-13T04:58:09.827Z,100018.20
2019-01-13T05:00:38.488Z,100011.66
2019-01-13T05:03:07.081Z,100008.29
2019-01-13T05:05:35.768Z,100009.18
2019-01-13T05:08:04.376Z,99993.00
2019-01-13T05:10:33.498Z,99989.51
2019-01-13T05:13:02.084Z,99983.55
2019-01-13T05:15:30.682Z,99978.44
2019-01-13T05:17:59.317Z,99970.13
2019-01-13T05:20:27.951Z,99969.22
2019-01-13T05:22:56.785Z,99964.56
2019-01-13T05:25:25.508Z,99953.97
2019-01-13T05:27:54.150Z,99960.32
2019-01-13T05:30:23.258Z,99955.30
2019-01-13T05:32:51.873Z,99957.62
2019-01-13T05:35:20.745Z,99952.95
2019-01-13T05:37:49.372Z,99952.64
2019-01-13T05:40:19.798Z,99952.29
2019-01-13T05:42:48.429Z,99946.09
2019-01-13T05:45:18.609Z,99952.25
2019-01-13T05:47:47.357Z,99953.39
2019-01-13T05:50:17.466Z,99950.56
2019-01-13T05:52:47.449Z,99950.73
2019-01-13T05:55:16.100Z,99949.27
2019-01-13T05:57:44.819Z,99948.25
2019-01-13T06:00:16.332Z,99943.24
2019-01-13T06:02:44.965Z,99938.82
2019-01-13T06:05:13.611Z,99923.69
2019-01-13T06:07:42.274Z,99925.25
2019-01-13T06:10:12.510Z,99917.48
2019-01-13T06:12:41.173Z,99904.28
2019-01-13T06:15:11.918Z,99900.56
2019-01-13T06:17:40.538Z,99893.44
2019-01-13T06:20:12.290Z,99880.89
2019-01-13T06:22:40.878Z,99877.13
2019-01-13T06:25:09.509Z,99878.50
2019-01-13T06:27:38.127Z,99871.36
2019-01-13T06:30:09.026Z,99853.95
2019-01-13T06:32:37.514Z,99868.92
2019-01-13T06:35:06.609Z,99866.02
2019-01-13T06:37:35.242Z,99870.52
2019-01-13T06:40:04.841Z,99876.25
2019-01-13T06:42:33.571Z,99868.56
2019-01-13T06:45:02.195Z,99852.62
2019-01-13T06:47:30.995Z,99849.82
2019-01-13T06:49:59.638Z,99846.09
2019-01-13T06:52:28.270Z,99849.70
2019-01-13T06:54:56.889Z,99850.84
2019-01-13T06:57:25.499Z,99859.34
2019-01-13T06:59:54.125Z,99843.50
2019-01-13T07:02:22.893Z,99848.75
2019-01-13T07:04:51.515Z,99849.06
2019-01-13T07:07:20.139Z,99844.12
2019-01-13T07:09:48.827Z,99845.58
2019-01-13T07:12:17.406Z,99841.72
2019-01-13T07:14:46.024Z,99845.02
2019-01-13T07:17:14.630Z,99844.62
2019-01-13T07:19:43.269Z,99840.25
2019-01-13T07:22:11.903Z,99841.27
2019-01-13T07:24:40.511Z,99851.55
2019-01-13T07:27:09.090Z,99853.84
2019-01-13T07:29:37.804Z,99857.56
2019-01-13T07:32:10.713Z,99861.77
2019-01-13T07:34:36.785Z,99859.10
2019-01-13T07:37:05.441Z,99859.10
2019-01-13T07:39:34.038Z,99864.17
2019-01-13T07:42:02.751Z,99860.25
2019-01-13T07:44:31.388Z,99860.61
2019-01-13T07:46:59.972Z,99856.56
2019-01-13T07:49:28.609Z,99851.48
2019-01-13T07:51:57.188Z,99840.58
2019-01-13T07:54:25.845Z,99842.58
2019-01-13T07:56:54.432Z,99838.27
2019-01-13T07:59:23.049Z,99836.58
2019-01-13T08:01:51.635Z,99832.63
2019-01-13T08:04:20.320Z,99832.63
2019-01-13T08:06:50.211Z,99837.02
2019-01-13T08:09:18.922Z,99829.19
2019-01-13T08:11:47.602Z,99827.75
2019-01-13T08:14:16.290Z,99821.34
2019-01-13T08:16:44.857Z,99827.87
2019-01-13T08:19:13.511Z,99826.48
2019-01-13T08:21:42.889Z,99822.73
2019-01-13T08:24:11.565Z,99815.36
2019-01-13T08:26:40.146Z,99817.66
2019-01-13T08:29:08.783Z,99817.20
2019-01-13T08:31:37.525Z,99813.83
2019-01-13T08:34:06.133Z,99807.42
2019-01-13T08:36:35.967Z,99801.47
2019-01-13T08:39:07.746Z,99794.91
2019-01-13T08:41:36.347Z,99783.88
2019-01-13T08:44:05.001Z,99787.52
2019-01-13T08:46:33.682Z,99787.56
2019-01-13T08:49:02.371Z,99785.77
2019-01-13T08:51:31.783Z,99787.83
2019-01-13T08:54:00.500Z,99774.41
2019-01-13T08:56:29.058Z,99776.70
2019-01-13T08:58:58.012Z,99762.92
2019-01-13T09:01:26.640Z,99760.66
2019-01-13T09:03:55.450Z,99742.72
2019-01-13T09:06:24.065Z,99737.44
2019-01-13T09:08:52.673Z,99722.61
2019-01-13T09:11:21.293Z,99726.00
2019-01-13T09:13:49.954Z,99715.48
2019-01-13T09:16:18.535Z,99716.05
2019-01-13T09:18:47.182Z,99708.50
2019-01-13T09:21:15.747Z,99707.48
2019-01-13T09:23:44.335Z,99698.76
2019-01-13T09:26:12.962Z,99692.81
2019-01-13T09:28:41.629Z,99691.31
2019-01-13T09:31:10.336Z,99684.23
2019-01-13T09:33:38.957Z,99671.92
2019-01-13T09:36:07.537Z,99678.67
2019-01-13T09:38:36.151Z,99684.01
2019-01-13T09:41:04.944Z,99681.34
2019-01-13T09:43:33.869Z,99684.80
2019-01-13T09:46:02.749Z,99684.80
2019-01-13T09:48:31.685Z,99687.87
2019-01-13T09:51:00.315Z,99693.17
2019-01-13T09:53:29.068Z,99689.48
2019-01-13T09:55:57.713Z,99678.22
2019-01-13T09:58:26.343Z,99679.45
2019-01-13T10:00:54.980Z,99666.75
2019-01-13T10:03:23.664Z,99659.14
2019-01-13T10:05:52.503Z,99646.95
2019-01-13T10:08:21.100Z,99643.78
2019-01-13T10:10:49.826Z,99632.50
2019-01-13T10:13:18.668Z,99629.02
2019-01-13T10:15:47.333Z,99625.31
2019-01-13T10:18:15.965Z,99542.25
2019-01-13T10:20:44.617Z,99619.36
2019-01-13T10:23:13.223Z,99618.33
2019-01-13T10:25:41.921Z,99613.91
2019-01-13T10:28:10.809Z,99604.39
2019-01-13T10:30:39.452Z,99603.05
2019-01-13T10:33:08.139Z,99592.56
2019-01-13T10:35:36.757Z,99600.70
2019-01-13T10:38:05.415Z,99589.72
2019-01-13T10:40:34.045Z,99565.85
2019-01-13T10:43:02.682Z,99570.38
2019-01-13T10:45:31.815Z,99557.23
2019-01-13T10:48:00.600Z,99564.94
2019-01-13T10:50:30.731Z,99557.52
2019-01-13T10:53:09.616Z,99551.14
2019-01-13T10:55:38.405Z,99539.03
2019-01-13T10:58:07.197Z,99517.64
2019-01-13T11:00:36.909Z,99505.46
2019-01-13T11:03:06.151Z,99497.66
2019-01-13T11:05:35.185Z,99482.42
2019-01-13T11:08:11.008Z,99495.19
2019-01-13T11:10:34.325Z,99497.84
2019-01-13T11:13:02.961Z,99491.67
2019-01-13T11:15:31.677Z,99511.41
2019-01-13T11:18:00.314Z,99507.18
2019-01-13T11:20:34.981Z,99513.06
2019-01-13T11:23:04.498Z,99504.72
2019-01-13T11:25:34.047Z,99506.88
2019-01-13T11:28:02.665Z,99504.51
2019-01-13T11:30:31.322Z,99496.80
2019-01-13T11:32:59.925Z,99504.05
2019-01-13T11:35:28.709Z,99501.17
2019-01-13T11:37:57.369Z,99495.45
2019-01-13T11:40:27.148Z,99489.07
2019-01-13T11:42:55.759Z,99478.61
2019-01-13T11:45:24.395Z,99464.72
2019-01-13T11:47:53.035Z,99466.98
2019-01-13T11:50:22.443Z,99451.69
2019-01-13T11:52:51.662Z,99437.42
2019-01-13T11:55:20.421Z,99433.06
2019-01-13T11:57:49.459Z,99424.33
2019-01-13T12:00:27.114Z,99401.50
2019-01-13T12:02:55.763Z,99403.98
2019-01-13T12:05:24.404Z,99406.94
2019-01-13T12:07:53.111Z,99404.05
2019-01-13T12:10:21.836Z,99384.41
2019-01-13T12:12:50.530Z,99358.55
2019-01-13T12:15:19.378Z,99356.67
2019-01-13T12:17:48.050Z,99368.64
2019-01-13T12:20:19.239Z,99381.05
2019-01-13T12:22:48.524Z,99375.48
2019-01-13T12:25:18.015Z,99378.05
2019-01-13T12:27:46.671Z,99367.73
2019-01-13T12:30:18.481Z,99369.88
2019-01-13T12:32:47.132Z,99359.59
2019-01-13T12:35:15.842Z,99364.42
2019-01-13T12:37:44.445Z,99365.38
2019-01-13T12:40:16.774Z,99360.52
2019-01-13T12:42:45.655Z,99357.00
2019-01-13T12:45:15.816Z,99347.45
2019-01-13T12:47:44.686Z,99346.78
2019-01-13T12:50:16.222Z,99337.09
2019-01-13T12:52:44.865Z,99343.28
2019-01-13T12:55:13.574Z,99343.58
2019-01-13T12:57:42.262Z,99365.08
2019-01-13T13:00:12.632Z,99369.09
2019-01-13T13:02:41.378Z,99363.48
2019-01-13T13:05:10.983Z,99367.48
2019-01-13T13:07:39.756Z,99363.22
2019-01-13T13:10:29.529Z,99352.75
2019-01-13T13:12:58.311Z,99342.91
2019-01-13T13:15:27.854Z,99338.45
2019-01-13T13:17:56.505Z,99326.72
2019-01-13T13:20:25.164Z,99319.52
2019-01-13T13:22:53.918Z,99305.95
2019-01-13T13:25:22.551Z,99308.67
2019-01-13T13:27:51.106Z,99306.30
2019-01-13T13:30:21.248Z,99313.35
2019-01-13T13:32:50.009Z,99312.12
2019-01-13T13:35:18.680Z,99300.50
2019-01-13T13:37:47.320Z,99290.09
2019-01-13T13:40:21.825Z,99274.66
2019-01-13T13:42:50.478Z,99268.19
2019-01-13T13:45:19.102Z,99267.30
2019-01-13T13:47:47.795Z,99250.44
2019-01-13T13:50:18.717Z,99255.78
2019-01-13T13:52:47.407Z,99252.57
2019-01-13T14:15:44.624Z,99231.85
2019-01-13T14:18:13.265Z,99253.95
2019-01-13T14:20:41.867Z,99251.06
2019-01-13T14:23:10.504Z,99252.23
2019-01-13T14:25:39.273Z,99240.91
2019-01-13T14:28:08.285Z,99221.61
2019-01-13T14:30:36.952Z,99229.73
2019-01-13T14:33:05.729Z,99238.77
2019-01-13T14:35:34.372Z,99235.38
2019-01-13T14:38:03.003Z,99240.73
2019-01-13T14:43:05.710Z,99260.96
2019-01-13T14:45:34.386Z,99252.30
2019-01-13T14:48:03.111Z,99245.91
2019-01-13T14:50:51.120Z,99228.40
2019-01-13T14:53:19.738Z,99204.95
2019-01-13T14:55:48.724Z,99215.73
2019-01-13T14:58:18.025Z,99200.97
2019-01-13T15:00:46.679Z,99169.75
2019-01-13T15:03:15.799Z,99176.90
2019-01-13T15:05:44.598Z,99160.46
2019-01-13T15:08:13.726Z,99172.20
2019-01-13T15:10:42.386Z,99170.56
2019-01-13T15:13:11.103Z,99181.43
2019-01-13T15:15:39.785Z,99156.83
2019-01-13T15:18:10.198Z,99164.34
2019-01-13T15:20:39.292Z,99153.88
2019-01-13T15:23:07.950Z,99164.47
2019-01-13T15:25:36.872Z,99170.86
2019-01-13T15:28:05.701Z,99175.91
2019-01-13T15:30:38.567Z,99173.06
2019-01-13T15:33:08.724Z,99155.67
2019-01-13T15:35:37.611Z,99157.84
2019-01-13T15:38:06.843Z,99173.69
2019-01-13T15:40:35.670Z,99189.51
2019-01-13T15:43:04.826Z,99187.13
2019-01-13T15:45:34.515Z,99168.64
2019-01-13T15:48:06.194Z,99124.30
2019-01-13T15:50:34.855Z,99158.41
2019-01-13T15:53:03.543Z,99154.53
2019-01-13T15:55:32.166Z,99148.56
2019-01-13T15:58:00.858Z,99149.19
2019-01-13T16:00:31.811Z,99127.95
2019-01-13T16:03:00.392Z,99118.88
2019-01-13T16:05:32.259Z,99109.88
2019-01-13T16:08:01.033Z,99086.50
2019-01-13T16:10:29.719Z,99117.81
2019-01-13T16:12:58.616Z,99111.74
2019-01-13T16:15:33.954Z,99107.92
2019-01-13T16:17:58.202Z,99116.86
2019-01-13T16:20:29.687Z,99115.59
2019-01-13T16:22:58.379Z,99120.44
2019-01-13T16:25:28.058Z,99126.38
2019-01-13T16:27:56.825Z,99108.63
2019-01-13T16:30:27.940Z,99097.84
2019-01-13T16:32:56.694Z,99110.02
2019-01-13T16:35:25.359Z,99104.31
2019-01-13T16:37:54.306Z,99113.23
2019-01-13T16:40:24.803Z,99107.88
2019-01-13T16:42:53.483Z,99103.41
2019-01-13T16:45:22.250Z,99105.85
2019-01-13T16:47:51.047Z,99107.19
2019-01-13T16:50:21.726Z,99100.94
2019-01-13T16:52:52.105Z,99110.77
2019-01-13T16:55:21.224Z,99107.49
2019-01-13T16:57:50.066Z,99102.28
2019-01-13T17:00:20.509Z,99093.49
2019-01-13T17:02:49.127Z,99092.07
2019-01-13T17:05:18.911Z,99086.22
2019-01-13T17:07:47.638Z,99072.39
2019-01-13T17:10:18.146Z,99078.95
2019-01-13T17:12:47.215Z,99070.63
2019-01-13T17:15:18.410Z,99048.16
2019-01-13T17:17:47.453Z,99073.88
2019-01-13T17:20:21.491Z,99079.67
2019-01-13T17:22:50.089Z,99081.63
2019-01-13T17:25:21.059Z,99074.02
2019-01-13T17:27:49.811Z,99076.20
2019-01-13T17:30:20.831Z,99072.77
2019-01-13T17:32:49.539Z,99058.45
2019-01-13T17:35:18.231Z,99060.52
2019-01-13T17:37:46.813Z,99058.43
2019-01-13T17:40:17.647Z,99053.89
2019-01-13T17:42:47.178Z,99037.92
2019-01-13T17:45:17.095Z,99039.89
2019-01-13T17:47:46.728Z,99059.62
2019-01-13T17:50:17.397Z,99051.28
2019-01-13T17:52:46.393Z,99053.72
2019-01-13T17:55:18.384Z,99026.14
2019-01-13T17:57:46.960Z,99047.81
2019-01-13T18:00:19.579Z,99030.00
2019-01-13T18:02:48.384Z,99026.46
2019-01-13T18:05:17.346Z,99035.24
2019-01-13T18:07:45.993Z,99032.13
2019-01-13T18:10:14.990Z,99026.64
2019-01-13T18:12:43.674Z,99029.62
2019-01-13T18:15:13.081Z,99044.48
2019-01-13T18:17:41.959Z,99028.28
2019-01-13T18:20:14.888Z,99029.47
2019-01-13T18:22:43.784Z,99013.73
2019-01-13T18:25:12.403Z,99038.24
2019-01-13T18:27:41.569Z,99018.15
2019-01-13T18:30:15.296Z,98990.82
2019-01-13T18:32:44.429Z,99033.27
2019-01-13T18:35:15.266Z,99036.75
2019-01-13T18:37:44.156Z,99027.91
2019-01-13T18:40:15.207Z,99038.53
2019-01-13T18:42:44.182Z,99038.01
2019-01-13T18:45:13.829Z,99050.30
2019-01-13T18:47:43.305Z,99040.41
2019-01-13T18:50:14.431Z,99031.98
2019-01-13T18:52:45.474Z,99031.98
2019-01-13T18:55:14.244Z,98996.91
2019-01-13T18:57:42.884Z,99025.76
2019-01-13T19:00:15.270Z,99015.48
2019-01-13T19:02:44.430Z,99030.08
2019-01-13T19:05:14.843Z,99023.24
2019-01-13T19:07:43.634Z,99037.35
2019-01-13T19:10:26.635Z,99015.34
2019-01-13T19:13:00.170Z,99021.30
2019-01-13T19:15:29.792Z,99012.08
2019-01-13T19:17:59.192Z,99002.07
2019-01-13T19:20:31.766Z,98987.28
2019-01-13T19:23:03.834Z,98992.61
2019-01-13T19:25:34.315Z,98988.32
2019-01-13T19:28:03.313Z,98991.72
2019-01-13T19:30:31.901Z,98982.66
2019-01-13T19:33:00.518Z,98991.73
2019-01-13T19:35:30.446Z,99003.01
2019-01-13T19:37:59.101Z,98997.52
2019-01-13T19:40:30.682Z,98992.33
2019-01-13T19:42:59.343Z,99007.05
2019-01-13T19:45:28.483Z,99003.05
2019-01-13T19:47:57.560Z,99011.78
2019-01-13T19:50:27.819Z,99013.13
2019-01-13T19:52:56.562Z,98993.95
2019-01-13T19:55:25.331Z,98991.30
2019-01-13T19:57:53.991Z,99002.58
2019-01-13T20:00:31.550Z,98999.16
2019-01-13T20:03:00.320Z,99003.78
2019-01-13T20:05:29.091Z,99008.67
2019-01-13T20:07:57.768Z,99007.50
2019-01-13T20:10:27.799Z,99001.54
2019-01-13T20:12:56.430Z,99000.05
2019-01-13T20:15:25.244Z,98998.70
2019-01-13T20:17:54.073Z,98985.64
2019-01-13T20:20:22.818Z,98991.88
2019-01-13T20:22:51.719Z,99007.85
2019-01-13T20:25:20.731Z,99002.58
2019-01-13T20:27:49.494Z,99025.11
2019-01-13T20:30:20.682Z,98999.33
2019-01-13T20:32:49.547Z,99006.36
2019-01-13T20:35:19.386Z,99026.70
2019-01-13T20:37:48.461Z,99025.20
2019-01-13T20:40:17.118Z,99036.88
2019-01-13T20:42:46.041Z,99089.92
2019-01-13T20:45:18.199Z,99086.86
2019-01-13T20:47:47.476Z,99086.34
2019-01-13T20:50:16.184Z,99085.71
2019-01-13T20:52:44.937Z,99104.44
2019-01-13T20:55:14.058Z,99085.11
2019-01-13T20:57:42.929Z,99071.06
2019-01-13T21:00:22.585Z,99063.71
2019-01-13T21:02:52.348Z,99116.39
2019-01-13T21:05:26.634Z,99068.16
2019-01-13T21:07:52.568Z,99089.59
2019-01-13T21:10:21.752Z,99081.44
2019-01-13T21:12:50.958Z,99101.79
2019-01-13T21:15:22.523Z,99120.17
2019-01-13T21:17:57.539Z,99098.87
2019-01-13T21:20:22.224Z,99114.33
2019-01-13T21:22:51.340Z,99114.33
2019-01-13T21:25:20.755Z,99137.77
2019-01-13T21:27:49.658Z,99124.92
2019-01-13T21:30:21.466Z,99112.17
2019-01-13T21:32:51.731Z,99133.22
2019-01-13T21:35:21.846Z,99139.90
2019-01-13T21:37:50.851Z,99130.39
2019-01-13T21:40:19.805Z,99134.06
2019-01-13T21:42:48.727Z,99152.11
2019-01-13T21:45:18.724Z,99143.39
2019-01-13T21:47:47.603Z,99157.86
2019-01-13T21:50:18.535Z,99144.84
2019-01-13T21:52:47.441Z,99185.63
2019-01-13T21:55:16.897Z,99177.80
2019-01-13T21:57:46.032Z,99179.01
2019-01-13T22:00:18.798Z,99117.33
2019-01-13T22:02:47.486Z,99176.16
2019-01-13T22:05:16.166Z,99160.47
2019-01-13T22:07:45.109Z,99155.75
2019-01-13T22:10:15.840Z,99142.73
2019-01-13T22:12:44.432Z,99159.00
2019-01-13T22:15:14.509Z,99148.48
2019-01-13T22:17:46.177Z,99149.38
2019-01-13T22:20:16.914Z,99149.38
2019-01-13T22:22:45.646Z,99143.36
2019-01-13T22:25:14.373Z,99143.23
2019-01-13T22:27:42.992Z,99132.69
2019-01-13T22:30:16.856Z,99142.92
2019-01-13T22:32:45.481Z,99134.13
2019-01-13T22:35:14.069Z,99126.23
2019-01-13T22:37:42.962Z,99134.34
2019-01-13T22:40:13.595Z,99125.73
2019-01-13T22:42:42.218Z,99126.36
2019-01-13T22:45:14.140Z,99141.83
2019-01-13T22:47:42.835Z,99130.14
2019-01-13T22:50:12.389Z,99129.70
2019-01-13T22:52:41.450Z,99124.21
2019-01-13T22:55:10.149Z,99133.33
2019-01-13T22:57:38.743Z,99143.38
2019-01-13T23:00:54.389Z,99145.83
2019-01-13T23:03:23.038Z,99129.22
2019-01-13T23:05:55.600Z,99149.36
2019-01-13T23:08:22.214Z,99160.71
2019-01-13T23:10:50.911Z,99155.80
2019-01-13T23:13:19.526Z,99137.16
2019-01-13T23:15:48.165Z,99130.50
2019-01-13T23:18:17.466Z,99158.98
2019-01-13T23:20:47.677Z,99144.72
2019-01-13T23:23:16.277Z,99146.27
2019-01-13T23:25:44.918Z,99152.23
2019-01-13T23:28:13.567Z,99133.97
2019-01-13T23:30:42.205Z,99116.14
2019-01-13T23:33:10.806Z,99140.53
2019-01-13T23:35:39.499Z,99141.14
2019-01-13T23:38:08.107Z,99127.79
2019-01-13T23:40:36.782Z,99145.63
2019-01-13T23:43:05.398Z,99154.74
2019-01-13T23:45:35.004Z,99127.46
2019-01-13T23:48:03.801Z,99102.89
2019-01-13T23:50:32.475Z,99143.77
2019-01-13T23:53:01.321Z,99149.18
2019-01-13T23:55:30.003Z,99135.99
2019-01-13T23:57:58.725Z,99142.38
